createdAt,value
2023-04-02T00:03:22.644Z,7.70
2023-04-02T00:08:29.879Z,7.57
2023-04-02T00:13:36.719Z,7.46
2023-04-02T00:18:47.138Z,7.44
2023-04-02T00:23:50.692Z,7.44
2023-04-02T00:28:53.693Z,7.38
2023-04-02T00:33:57.360Z,7.31
2023-04-02T00:39:24.389Z,7.21
2023-04-02T00:44:29.448Z,7.13
2023-04-02T00:49:38.395Z,7.14
2023-04-02T00:55:01.358Z,7.13
2023-04-02T01:00:31.359Z,7.25
2023-04-02T01:05:36.061Z,7.23
2023-04-02T01:10:52.373Z,7.18
2023-04-02T01:16:05.437Z,7.15
2023-04-02T01:21:46.257Z,7.13
2023-04-02T01:27:23.812Z,7.12
2023-04-02T01:32:30.288Z,7.13
2023-04-02T01:37:45.119Z,7.08
2023-04-02T01:43:06.643Z,7.06
2023-04-02T01:48:24.935Z,7.13
2023-04-02T01:53:30.946Z,7.11
2023-04-02T01:58:34.581Z,7.10
2023-04-02T02:03:42.844Z,7.10
2023-04-02T02:09:07.877Z,7.06
2023-04-02T02:14:20.986Z,7.00
2023-04-02T02:19:47.366Z,6.86
2023-04-02T02:24:50.712Z,6.79
2023-04-02T02:30:02.608Z,6.74
2023-04-02T02:35:30.021Z,6.78
2023-04-02T02:40:43.951Z,6.74
2023-04-02T02:45:48.434Z,6.67
2023-04-02T02:50:52.117Z,6.70
2023-04-02T02:56:01.426Z,6.63
2023-04-02T03:01:10.811Z,6.68
2023-04-02T03:06:20.999Z,6.70
2023-04-02T03:11:39.272Z,6.73
2023-04-02T03:16:49.476Z,6.77
2023-04-02T03:22:14.560Z,6.85
2023-04-02T03:27:28.539Z,6.80
2023-04-02T03:32:39.547Z,6.92
2023-04-02T03:37:58.989Z,6.99
2023-04-02T03:43:13.525Z,6.98
2023-04-02T03:48:39.515Z,6.85
2023-04-02T03:53:44.826Z,6.94
2023-04-02T03:58:55.877Z,6.98
2023-04-02T04:04:09.149Z,7.06
2023-04-02T04:09:36.009Z,7.29
2023-04-02T04:14:45.317Z,7.49
2023-04-02T04:20:07.982Z,7.76
2023-04-02T04:25:29.865Z,7.98
2023-04-02T04:31:04.222Z,8.07
2023-04-02T04:36:28.973Z,8.06
2023-04-02T04:41:48.480Z,8.09
2023-04-02T04:47:01.891Z,8.29
2023-04-02T04:52:17.093Z,8.31
2023-04-02T04:57:38.422Z,8.31
2023-04-02T05:03:13.829Z,8.37
2023-04-02T05:08:27.360Z,8.53
2023-04-02T05:14:04.441Z,8.70
2023-04-02T05:19:19.867Z,8.94
2023-04-02T05:24:54.019Z,9.23
2023-04-02T05:30:24.166Z,9.47
2023-04-02T05:35:37.048Z,9.93
2023-04-02T05:40:46.595Z,10.25
2023-04-02T05:45:57.008Z,10.26
2023-04-02T05:51:25.073Z,10.40
2023-04-02T05:56:39.401Z,10.40
2023-04-02T06:01:52.212Z,10.33
2023-04-02T06:07:16.838Z,10.47
2023-04-02T06:12:50.062Z,10.54
2023-04-02T06:18:08.207Z,10.76
2023-04-02T06:23:11.887Z,10.70
2023-04-02T06:28:25.969Z,10.71
2023-04-02T06:33:30.825Z,11.06
2023-04-02T06:38:35.632Z,11.13
2023-04-02T06:43:47.277Z,11.27
2023-04-02T06:49:05.541Z,11.33
2023-04-02T06:54:15.286Z,11.48
2023-04-02T06:59:20.546Z,11.50
2023-04-02T07:04:24.591Z,11.70
2023-04-02T07:09:29.538Z,11.92
2023-04-02T07:14:36.125Z,11.87
2023-04-02T07:19:39.177Z,12.01
2023-04-02T07:24:42.590Z,12.15
2023-04-02T07:29:45.616Z,12.05
2023-04-02T07:34:49.199Z,12.17
2023-04-02T07:39:52.242Z,12.25
2023-04-02T07:44:55.148Z,12.34
2023-04-02T07:49:58.099Z,12.47
2023-04-02T07:55:19.619Z,12.59
2023-04-02T08:00:23.941Z,12.78
2023-04-02T08:05:28.005Z,12.75
2023-04-02T08:10:31.137Z,13.05
2023-04-02T08:15:34.398Z,13.27
2023-04-02T08:20:37.888Z,13.54
2023-04-02T08:25:59.385Z,13.72
2023-04-02T08:31:02.536Z,13.65
2023-04-02T08:36:05.529Z,13.75
2023-04-02T08:41:16.025Z,13.86
2023-04-02T08:46:37.709Z,14.02
2023-04-02T08:51:41.576Z,13.92
2023-04-02T08:56:53.211Z,14.07
2023-04-02T09:02:07.903Z,14.15
2023-04-02T09:07:16.944Z,14.25
2023-04-02T09:12:28.000Z,14.41
2023-04-02T09:17:42.711Z,14.62
2023-04-02T09:22:51.646Z,14.82
2023-04-02T09:27:57.283Z,14.88
2023-04-02T09:33:03.055Z,15.20
2023-04-02T09:38:32.940Z,15.06
2023-04-02T09:43:37.888Z,14.97
2023-04-02T09:49:03.707Z,14.93
2023-04-02T09:54:13.982Z,15.17
2023-04-02T09:59:19.025Z,15.39
2023-04-02T10:04:45.133Z,15.41
2023-04-02T10:09:58.998Z,15.61
2023-04-02T10:15:04.401Z,15.60
2023-04-02T10:20:26.453Z,15.83
2023-04-02T10:26:20.576Z,16.06
2023-04-02T10:31:27.728Z,15.63
2023-04-02T10:36:58.045Z,15.62
2023-04-02T10:42:29.872Z,15.89
2023-04-02T10:47:48.745Z,15.97
2023-04-02T10:52:56.602Z,16.32
2023-04-02T10:58:07.830Z,16.44
2023-04-02T11:03:23.309Z,16.28
2023-04-02T11:08:33.607Z,16.13
2023-04-02T11:13:42.048Z,16.31
2023-04-02T11:19:16.873Z,16.72
2023-04-02T11:24:33.174Z,16.70
2023-04-02T11:29:59.869Z,16.68
2023-04-02T11:35:23.197Z,16.54
2023-04-02T11:40:58.155Z,16.79
2023-04-02T11:46:06.769Z,16.98
2023-04-02T11:51:22.649Z,17.01
2023-04-02T11:57:05.339Z,17.13
2023-04-02T12:02:35.220Z,16.78
2023-04-02T12:07:52.544Z,16.54
2023-04-02T12:12:55.595Z,16.89
2023-04-02T12:18:11.015Z,16.81
2023-04-02T12:23:26.689Z,16.94
2023-04-02T12:28:31.452Z,16.96
2023-04-02T12:33:39.858Z,17.02
2023-04-02T12:38:55.733Z,17.25
2023-04-02T12:43:59.852Z,17.28
2023-04-02T12:49:06.256Z,17.45
2023-04-02T12:54:15.449Z,17.29
2023-04-02T12:59:31.504Z,17.35
2023-04-02T13:04:47.830Z,17.44
2023-04-02T13:09:59.409Z,17.44
2023-04-02T13:15:05.123Z,16.90
2023-04-02T13:20:32.799Z,17.14
2023-04-02T13:25:37.184Z,17.65
2023-04-02T13:30:40.557Z,17.67
2023-04-02T13:35:44.274Z,17.80
2023-04-02T13:41:48.132Z,17.74
2023-04-02T13:47:02.756Z,17.46
2023-04-02T13:52:10.516Z,16.93
2023-04-02T13:57:31.911Z,16.72
2023-04-02T14:02:34.728Z,16.45
2023-04-02T14:08:09.156Z,16.19
2023-04-02T14:13:37.499Z,16.03
2023-04-02T14:19:25.297Z,15.95
2023-04-02T14:24:46.726Z,15.78
2023-04-02T14:30:11.189Z,15.60
2023-04-02T14:35:32.589Z,15.26
2023-04-02T14:41:00.055Z,15.06
2023-04-02T14:46:04.698Z,15.12
2023-04-02T14:51:17.715Z,14.87
2023-04-02T14:56:24.159Z,14.74
2023-04-02T15:01:41.538Z,14.59
2023-04-02T15:07:22.358Z,14.50
2023-04-02T15:12:32.021Z,14.73
2023-04-02T15:17:36.329Z,14.64
2023-04-02T15:22:57.402Z,14.63
2023-04-02T15:28:35.849Z,14.46
2023-04-02T15:33:57.228Z,14.24
2023-04-02T15:39:06.763Z,14.17
2023-04-02T15:44:15.254Z,14.16
2023-04-02T15:49:24.153Z,14.07
2023-04-02T15:55:05.125Z,13.91
2023-04-02T16:00:15.703Z,13.82
2023-04-02T16:05:44.614Z,13.81
2023-04-02T16:10:47.895Z,13.74
2023-04-02T16:15:56.506Z,13.70
2023-04-02T16:21:03.190Z,13.66
2023-04-02T16:26:34.002Z,13.56
2023-04-02T16:31:45.768Z,13.35
2023-04-02T16:37:13.121Z,13.25
2023-04-02T16:42:24.559Z,13.24
2023-04-02T16:47:53.421Z,12.98
2023-04-02T16:53:07.897Z,12.88
2023-04-02T16:58:26.659Z,12.63
2023-04-02T17:03:47.850Z,12.53
2023-04-02T17:09:14.862Z,12.45
2023-04-02T17:14:39.204Z,12.38
2023-04-02T17:19:44.960Z,12.37
2023-04-02T17:24:59.891Z,12.31
2023-04-02T17:30:12.873Z,12.29
2023-04-02T17:35:23.330Z,12.19
2023-04-02T17:40:39.366Z,12.11
2023-04-02T17:45:54.505Z,12.11
2023-04-02T17:51:22.078Z,12.04
2023-04-02T17:56:54.058Z,12.08
2023-04-02T18:02:34.774Z,12.09
2023-04-02T18:07:49.698Z,12.02
2023-04-02T18:13:03.481Z,12.00
2023-04-02T18:18:40.259Z,12.01
2023-04-02T18:23:55.579Z,11.98
2023-04-02T18:29:25.639Z,11.96
2023-04-02T18:35:02.346Z,11.70
2023-04-02T18:40:14.955Z,11.76
2023-04-02T18:46:13.157Z,11.51
2023-04-02T18:51:22.659Z,11.44
2023-04-02T18:56:27.073Z,11.51
2023-04-02T19:01:39.253Z,11.54
2023-04-02T19:06:47.261Z,11.51
2023-04-02T19:11:53.132Z,11.42
2023-04-02T19:17:20.439Z,11.42
2023-04-02T19:22:30.344Z,11.30
2023-04-02T19:27:58.279Z,11.28
2023-04-02T19:33:28.470Z,11.26
2023-04-02T19:38:49.586Z,11.15
2023-04-02T19:43:53.402Z,11.15
2023-04-02T19:49:23.099Z,11.18
2023-04-02T19:54:26.023Z,11.14
2023-04-02T19:59:28.868Z,11.11
2023-04-02T20:04:31.887Z,11.08
2023-04-02T20:09:35.185Z,10.94
2023-04-02T20:14:38.224Z,10.85
2023-04-02T20:19:41.561Z,10.78
2023-04-02T20:24:44.397Z,10.77
2023-04-02T20:29:48.254Z,10.83
2023-04-02T20:34:51.025Z,10.85
2023-04-02T20:39:54.010Z,10.81
2023-04-02T20:44:56.933Z,10.86
2023-04-02T20:49:59.850Z,10.88
2023-04-02T20:55:03.789Z,10.75
2023-04-02T21:00:08.441Z,10.59
2023-04-02T21:05:11.380Z,10.54
2023-04-02T21:10:14.625Z,10.44
2023-04-02T21:15:17.610Z,10.24
2023-04-02T21:20:20.455Z,10.17
2023-04-02T21:25:23.302Z,10.18
2023-04-02T21:30:26.331Z,10.16
2023-04-02T21:35:29.210Z,10.12
2023-04-02T21:40:31.950Z,10.06
2023-04-02T21:45:35.051Z,10.05
2023-04-02T21:50:38.363Z,10.02
2023-04-02T21:56:05.305Z,9.98
2023-04-02T22:01:14.044Z,9.95
2023-04-02T22:06:25.406Z,9.93
2023-04-02T22:11:31.560Z,9.97
2023-04-02T22:16:35.950Z,9.85
2023-04-02T22:21:39.679Z,9.70
2023-04-02T22:26:43.361Z,9.58
2023-04-02T22:31:46.399Z,9.50
2023-04-02T22:36:49.350Z,9.51
2023-04-02T22:41:52.342Z,9.50
2023-04-02T22:46:55.163Z,9.43
2023-04-02T22:51:58.096Z,9.44
2023-04-02T22:57:01.057Z,9.46
2023-04-02T23:02:03.960Z,9.51
2023-04-02T23:07:07.002Z,9.58
2023-04-02T23:12:10.149Z,9.50
2023-04-02T23:17:13.238Z,9.45
2023-04-02T23:22:16.227Z,9.29
2023-04-02T23:27:19.189Z,9.22
2023-04-02T23:32:22.118Z,9.16
2023-04-02T23:37:25.105Z,9.07
2023-04-02T23:42:28.481Z,9.11
2023-04-02T23:47:31.332Z,9.19
2023-04-02T23:52:34.213Z,9.31
2023-04-02T23:57:37.066Z,9.17
